McGuffey, OH (45859)

5:38 PM EDT on September 01, 2014 (GMT -0400)
Ada | Change Station
CLOSE
Current Station
Personal Weather Station
Location: Ada, OH
Elevation: 912 ft
Nearby Weather Stations

Elev 912 ft 40.82 °N, 83.86 °W | Updated 6 seconds ago

Mostly Cloudy
Mostly Cloudy
80.3 °F
Feels Like 85 °F
N
12.0
Wind Variable Wind from SW
Gusts 17.0 mph

Today
High -- | Low -- °F
--% Chance of Precip.
Yesterday
High -- | Low -- °F
Precip. -- in
7:02 AM 8:07 PM
Waxing Crescent, 44% visible
Pressure 29.83 in
Visibility 10.0 miles
Clouds Few 3800 ft
Scattered Clouds 6000 ft
Mostly Cloudy 10000 ft
Heat Index 85 °F
Dew Point 73 °F
Humidity 79%
Rainfall 0.00 in
Snow Depth Not available.
UV 2 out of 12
Pollen 10.00 out of 12
Air Quality Not available.
Flu Activity Not available.
METAR KAOH 012053Z AUTO 22013G19KT 10SM FEW038 SCT060 BKN100 29/21 A2986 RMK AO2 SLP102 T02940211 56010

More Conditions Fewer Conditions

Pressure 29.83 in
Visibility 10.0 miles
Clouds Few 3800 ft
Scattered Clouds 6000 ft
Mostly Cloudy 10000 ft
Heat Index 85 °F
Dew Point 73 °F
Humidity 79%
Rainfall 0.00 in
Snow Depth Not available.
UV 2 out of 12
Pollen 10.00 out of 12
Air Quality Not available.
Flu Activity Not available.
METAR KAOH 012053Z AUTO 22013G19KT 10SM FEW038 SCT060 BKN100 29/21 A2986 RMK AO2 SLP102 T02940211 56010

More Conditions Fewer Conditions

10-Day Weather Forecast

Almanac

Astronomy

Sep. 01, 2014 Rise Set
Actual Time 7:02 AM EDT 8:07 PM EDT
Civil Twilight 6:34 AM EDT 8:35 PM EDT
Nautical Twilight 6:00 AM EDT 9:08 PM EDT
Astronomical Twilight 5:25 AM EDT 9:43 PM EDT
Moon 1:49 PM EDT No Moon Set
Length of Visible Light 14h 01m
Length of Day
13h 05m
Tomorrow will be 2m 36s shorter.
Waxing Crescent, 44% of the Moon is Illuminated
Today
Waxing Crescent
Sep 2
First Quarter
Sep 8
Full
Sep 15
Last Quarter
Sep 24
New

Today's Extremes

State Highs State Lows

Community

WunderPhotos

Upload Photos

1,749,416 photos uploaded!

WunderBlogs® & News

Nearby

Snow Depth

Station Depth Elevation
No new snow has been reported.

Earthquake Activity

City Distance Mag. Time & Date
No recent earthquake activity has been reported nearby.
Minimum magnitude displayed is 2.5.

Coastal Water Temperatures

Place Temperature
No Stations Reporting

Nearby Weather Stations